sensor_id;sensor_type;location;lat;lon;timestamp;pressure;altitude;pressure_sealevel;temperature;humidity
30714;BME280;17465;47.934;33.430;2022-08-11T00:00:48;99716.98;;;22.49;100.00
30714;BME280;17465;47.934;33.430;2022-08-11T00:03:19;99728.30;;;22.49;100.00
30714;BME280;17465;47.934;33.430;2022-08-11T00:05:54;99728.30;;;22.49;100.00
30714;BME280;17465;47.934;33.430;2022-08-11T00:08:29;99736.20;;;22.49;100.00
30714;BME280;17465;47.934;33.430;2022-08-11T00:11:00;99727.28;;;22.51;100.00
30714;BME280;17465;47.934;33.430;2022-08-11T00:13:44;99726.07;;;22.52;100.00
30714;BME280;17465;47.934;33.430;2022-08-11T00:16:16;99724.11;;;22.42;100.00
30714;BME280;17465;47.934;33.430;2022-08-11T00:18:40;99724.11;;;22.42;100.00
30714;BME280;17465;47.934;33.430;2022-08-11T00:21:11;99734.01;;;22.42;100.00
30714;BME280;17465;47.934;33.430;2022-08-11T00:23:44;99735.05;;;22.37;100.00
30714;BME280;17465;47.934;33.430;2022-08-11T00:26:16;99735.05;;;22.37;100.00
30714;BME280;17465;47.934;33.430;2022-08-11T00:28:47;99737.10;;;22.12;100.00
30714;BME280;17465;47.934;33.430;2022-08-11T00:34:24;99735.30;;;22.03;100.00
30714;BME280;17465;47.934;33.430;2022-08-11T00:36:51;99735.30;;;22.03;100.00
30714;BME280;17465;47.934;33.430;2022-08-11T00:39:23;99726.03;;;21.88;100.00
30714;BME280;17465;47.934;33.430;2022-08-11T01:02:16;99729.42;;;21.11;100.00
30714;BME280;17465;47.934;33.430;2022-08-11T01:08:16;99725.38;;;21.05;100.00
30714;BME280;17465;47.934;33.430;2022-08-11T01:10:55;99721.55;;;21.04;100.00
30714;BME280;17465;47.934;33.430;2022-08-11T01:28:52;99712.28;;;20.93;100.00
30714;BME280;17465;47.934;33.430;2022-08-11T01:46:03;99698.77;;;21.03;100.00
30714;BME280;17465;47.934;33.430;2022-08-11T01:51:37;99701.55;;;20.82;100.00
30714;BME280;17465;47.934;33.430;2022-08-11T02:00:04;99700.29;;;20.72;100.00
30714;BME280;17465;47.934;33.430;2022-08-11T02:11:44;99714.81;;;20.71;100.00
30714;BME280;17465;47.934;33.430;2022-08-11T02:14:23;99712.95;;;20.65;100.00
30714;BME280;17465;47.934;33.430;2022-08-11T02:17:58;99712.95;;;20.65;100.00
30714;BME280;17465;47.934;33.430;2022-08-11T02:25:57;99728.46;;;20.65;100.00
30714;BME280;17465;47.934;33.430;2022-08-11T02:32:19;99724.41;;;20.56;100.00
30714;BME280;17465;47.934;33.430;2022-08-11T02:37:50;99730.31;;;20.71;100.00
30714;BME280;17465;47.934;33.430;2022-08-11T02:43:12;99730.66;;;20.59;100.00
30714;BME280;17465;47.934;33.430;2022-08-11T02:46:00;99737.75;;;20.66;100.00
30714;BME280;17465;47.934;33.430;2022-08-11T02:51:56;99734.27;;;20.56;100.00
30714;BME280;17465;47.934;33.430;2022-08-11T03:00:21;99761.34;;;20.78;100.00
30714;BME280;17465;47.934;33.430;2022-08-11T03:03:09;99754.47;;;20.72;100.00
30714;BME280;17465;47.934;33.430;2022-08-11T03:05:44;99756.70;;;20.69;100.00
30714;BME280;17465;47.934;33.430;2022-08-11T03:08:21;99756.70;;;20.69;100.00
30714;BME280;17465;47.934;33.430;2022-08-11T03:11:02;99757.11;;;20.74;100.00
30714;BME280;17465;47.934;33.430;2022-08-11T03:13:33;99757.49;;;20.69;100.00
30714;BME280;17465;47.934;33.430;2022-08-11T03:30:39;99755.91;;;20.75;100.00
30714;BME280;17465;47.934;33.430;2022-08-11T03:33:34;99755.91;;;20.75;100.00
30714;BME280;17465;47.934;33.430;2022-08-11T03:39:06;99757.97;;;20.82;100.00
30714;BME280;17465;47.934;33.430;2022-08-11T03:42:15;99758.59;;;20.88;100.00
30714;BME280;17465;47.934;33.430;2022-08-11T03:45:16;99763.20;;;20.80;100.00
30714;BME280;17465;47.934;33.430;2022-08-11T03:54:13;99774.94;;;20.96;100.00
30714;BME280;17465;47.934;33.430;2022-08-11T04:01:18;99797.54;;;20.99;100.00
30714;BME280;17465;47.934;33.430;2022-08-11T04:15:03;99798.95;;;21.06;100.00
30714;BME280;17465;47.934;33.430;2022-08-11T04:17:42;99795.36;;;21.20;100.00
30714;BME280;17465;47.934;33.430;2022-08-11T04:20:22;99793.52;;;21.07;100.00
30714;BME280;17465;47.934;33.430;2022-08-11T04:26:47;99798.62;;;21.29;100.00
30714;BME280;17465;47.934;33.430;2022-08-11T04:31:35;99798.21;;;21.23;100.00
30714;BME280;17465;47.934;33.430;2022-08-11T04:37:10;99795.00;;;21.32;100.00
30714;BME280;17465;47.934;33.430;2022-08-11T04:45:35;99787.94;;;21.35;100.00
30714;BME280;17465;47.934;33.430;2022-08-11T04:56:17;99784.53;;;21.46;100.00
30714;BME280;17465;47.934;33.430;2022-08-11T05:07:56;99771.05;;;21.66;100.00
30714;BME280;17465;47.934;33.430;2022-08-11T05:16:15;99776.29;;;21.75;100.00
30714;BME280;17465;47.934;33.430;2022-08-11T05:19:01;99778.52;;;21.75;100.00
30714;BME280;17465;47.934;33.430;2022-08-11T05:21:33;99793.26;;;21.89;100.00
30714;BME280;17465;47.934;33.430;2022-08-11T05:24:10;99758.54;;;21.85;100.00
30714;BME280;17465;47.934;33.430;2022-08-11T05:26:47;99738.77;;;21.74;100.00
30714;BME280;17465;47.934;33.430;2022-08-11T05:29:47;99741.98;;;21.73;100.00
30714;BME280;17465;47.934;33.430;2022-08-11T05:32:41;99741.98;;;21.73;100.00
30714;BME280;17465;47.934;33.430;2022-08-11T05:35:15;99745.41;;;21.86;100.00
30714;BME280;17465;47.934;33.430;2022-08-11T05:37:49;99755.70;;;21.95;100.00
30714;BME280;17465;47.934;33.430;2022-08-11T05:40:20;99751.04;;;22.04;100.00
30714;BME280;17465;47.934;33.430;2022-08-11T05:42:58;99760.48;;;22.23;100.00
30714;BME280;17465;47.934;33.430;2022-08-11T05:45:25;99755.02;;;22.41;100.00
30714;BME280;17465;47.934;33.430;2022-08-11T05:47:59;99748.31;;;22.53;100.00
30714;BME280;17465;47.934;33.430;2022-08-11T05:50:30;99748.31;;;22.53;100.00
30714;BME280;17465;47.934;33.430;2022-08-11T05:53:03;99752.95;;;22.98;100.00
30714;BME280;17465;47.934;33.430;2022-08-11T05:58:40;99749.27;;;23.12;100.00
30714;BME280;17465;47.934;33.430;2022-08-11T06:01:32;99758.25;;;23.29;100.00
30714;BME280;17465;47.934;33.430;2022-08-11T06:03:56;99768.67;;;23.42;100.00
30714;BME280;17465;47.934;33.430;2022-08-11T06:06:28;99766.02;;;23.14;100.00
30714;BME280;17465;47.934;33.430;2022-08-11T06:09:00;99751.23;;;23.18;100.00
30714;BME280;17465;47.934;33.430;2022-08-11T06:11:32;99758.44;;;23.58;100.00
30714;BME280;17465;47.934;33.430;2022-08-11T06:14:08;99775.64;;;23.59;100.00
30714;BME280;17465;47.934;33.430;2022-08-11T06:16:41;99865.14;;;23.86;100.00
30714;BME280;17465;47.934;33.430;2022-08-11T06:19:12;99865.14;;;23.86;100.00
30714;BME280;17465;47.934;33.430;2022-08-11T06:21:47;99877.03;;;23.92;100.00
30714;BME280;17465;47.934;33.430;2022-08-11T06:24:18;99854.59;;;23.86;100.00
30714;BME280;17465;47.934;33.430;2022-08-11T06:26:50;99827.06;;;23.87;100.00
30714;BME280;17465;47.934;33.430;2022-08-11T06:29:24;99827.06;;;23.87;100.00
30714;BME280;17465;47.934;33.430;2022-08-11T06:31:59;99823.11;;;23.99;100.00
30714;BME280;17465;47.934;33.430;2022-08-11T06:34:36;99848.27;;;24.16;100.00
30714;BME280;17465;47.934;33.430;2022-08-11T06:37:21;99861.90;;;24.09;100.00
30714;BME280;17465;47.934;33.430;2022-08-11T06:46:07;99869.48;;;24.23;100.00
30714;BME280;17465;47.934;33.430;2022-08-11T06:48:42;99862.63;;;24.20;100.00
30714;BME280;17465;47.934;33.430;2022-08-11T06:51:15;99855.50;;;24.24;100.00
30714;BME280;17465;47.934;33.430;2022-08-11T06:53:51;99853.50;;;24.21;100.00
30714;BME280;17465;47.934;33.430;2022-08-11T06:56:28;99843.02;;;24.14;100.00
30714;BME280;17465;47.934;33.430;2022-08-11T06:59:01;99834.95;;;24.13;100.00
30714;BME280;17465;47.934;33.430;2022-08-11T07:04:47;99819.75;;;24.11;100.00
30714;BME280;17465;47.934;33.430;2022-08-11T07:13:37;99816.20;;;24.44;100.00
30714;BME280;17465;47.934;33.430;2022-08-11T07:16:09;99824.98;;;24.75;100.00
30714;BME280;17465;47.934;33.430;2022-08-11T07:18:46;99824.53;;;24.80;98.75
30714;BME280;17465;47.934;33.430;2022-08-11T07:21:26;99818.59;;;24.86;98.74
30714;BME280;17465;47.934;33.430;2022-08-11T07:24:01;99827.19;;;24.94;98.51
30714;BME280;17465;47.934;33.430;2022-08-11T07:26:32;99827.19;;;24.94;98.51
30714;BME280;17465;47.934;33.430;2022-08-11T07:29:03;99823.75;;;25.09;94.54
30714;BME280;17465;47.934;33.430;2022-08-11T07:31:45;99829.70;;;25.22;94.15
30714;BME280;17465;47.934;33.430;2022-08-11T07:34:24;99829.70;;;25.22;94.15
30714;BME280;17465;47.934;33.430;2022-08-11T07:36:55;99818.19;;;25.32;92.79
30714;BME280;17465;47.934;33.430;2022-08-11T07:39:30;99826.64;;;25.24;93.04
30714;BME280;17465;47.934;33.430;2022-08-11T07:42:17;99829.38;;;25.46;89.99
30714;BME280;17465;47.934;33.430;2022-08-11T07:44:49;99829.38;;;25.46;89.99
30714;BME280;17465;47.934;33.430;2022-08-11T07:47:22;99834.73;;;25.26;91.95
30714;BME280;17465;47.934;33.430;2022-08-11T07:49:53;99834.73;;;25.26;91.95
30714;BME280;17465;47.934;33.430;2022-08-11T07:52:27;99820.65;;;25.30;92.29
30714;BME280;17465;47.934;33.430;2022-08-11T07:55:15;99826.39;;;25.27;92.03
30714;BME280;17465;47.934;33.430;2022-08-11T07:57:55;99831.97;;;25.49;90.82
30714;BME280;17465;47.934;33.430;2022-08-11T08:00:23;99843.05;;;25.55;90.01
30714;BME280;17465;47.934;33.430;2022-08-11T08:02:56;99842.48;;;25.52;90.19
30714;BME280;17465;47.934;33.430;2022-08-11T08:05:28;99845.54;;;25.79;88.99
30714;BME280;17465;47.934;33.430;2022-08-11T08:07:59;99828.98;;;26.46;85.83
30714;BME280;17465;47.934;33.430;2022-08-11T08:13:23;99830.42;;;26.31;86.30
30714;BME280;17465;47.934;33.430;2022-08-11T08:15:54;99830.70;;;26.52;85.50
30714;BME280;17465;47.934;33.430;2022-08-11T08:21:18;99836.94;;;26.09;86.19
30714;BME280;17465;47.934;33.430;2022-08-11T08:23:48;99838.12;;;26.46;85.90
30714;BME280;17465;47.934;33.430;2022-08-11T08:26:20;99838.12;;;26.46;85.90
30714;BME280;17465;47.934;33.430;2022-08-11T08:31:42;99838.47;;;26.36;86.52
30714;BME280;17465;47.934;33.430;2022-08-11T08:34:15;99841.20;;;26.32;86.24
30714;BME280;17465;47.934;33.430;2022-08-11T08:36:48;99841.20;;;26.32;86.24
30714;BME280;17465;47.934;33.430;2022-08-11T08:39:22;99832.67;;;26.20;87.16
30714;BME280;17465;47.934;33.430;2022-08-11T08:41:55;99832.11;;;26.29;87.45
30714;BME280;17465;47.934;33.430;2022-08-11T08:44:26;99833.11;;;26.84;84.65
30714;BME280;17465;47.934;33.430;2022-08-11T08:46:59;99833.11;;;26.84;84.65
30714;BME280;17465;47.934;33.430;2022-08-11T08:49:35;99824.91;;;26.67;84.30
30714;BME280;17465;47.934;33.430;2022-08-11T08:52:09;99819.10;;;27.32;83.14
30714;BME280;17465;47.934;33.430;2022-08-11T08:54:44;99819.10;;;27.32;83.14
30714;BME280;17465;47.934;33.430;2022-08-11T08:57:16;99822.71;;;28.43;78.36
30714;BME280;17465;47.934;33.430;2022-08-11T08:59:49;99822.71;;;28.43;78.36
30714;BME280;17465;47.934;33.430;2022-08-11T09:02:26;99814.78;;;28.87;74.77
30714;BME280;17465;47.934;33.430;2022-08-11T09:04:55;99814.78;;;28.87;74.77
30714;BME280;17465;47.934;33.430;2022-08-11T09:07:27;99822.03;;;28.83;73.88
30714;BME280;17465;47.934;33.430;2022-08-11T09:10:01;99813.91;;;28.74;74.65
30714;BME280;17465;47.934;33.430;2022-08-11T09:12:33;99813.91;;;28.74;74.65
30714;BME280;17465;47.934;33.430;2022-08-11T09:15:07;99818.13;;;29.18;70.95
30714;BME280;17465;47.934;33.430;2022-08-11T09:17:45;99807.47;;;29.47;68.75
30714;BME280;17465;47.934;33.430;2022-08-11T09:20:26;99807.47;;;29.47;68.75
30714;BME280;17465;47.934;33.430;2022-08-11T09:23:10;99813.39;;;29.85;67.81
30714;BME280;17465;47.934;33.430;2022-08-11T09:25:37;99813.39;;;29.85;67.81
30714;BME280;17465;47.934;33.430;2022-08-11T09:28:12;99810.78;;;29.95;67.19
30714;BME280;17465;47.934;33.430;2022-08-11T09:30:51;99816.59;;;30.41;63.51
30714;BME280;17465;47.934;33.430;2022-08-11T09:33:17;99813.19;;;30.51;63.29
30714;BME280;17465;47.934;33.430;2022-08-11T09:35:49;99816.02;;;30.46;64.22
30714;BME280;17465;47.934;33.430;2022-08-11T09:38:40;99812.80;;;30.15;62.87
30714;BME280;17465;47.934;33.430;2022-08-11T09:41:13;99812.73;;;30.23;63.28
30714;BME280;17465;47.934;33.430;2022-08-11T09:43:45;99816.28;;;30.90;61.61
30714;BME280;17465;47.934;33.430;2022-08-11T09:46:21;99820.96;;;31.18;59.70
30714;BME280;17465;47.934;33.430;2022-08-11T09:48:50;99807.66;;;30.23;59.37
30714;BME280;17465;47.934;33.430;2022-08-11T09:51:22;99807.66;;;30.23;59.37
30714;BME280;17465;47.934;33.430;2022-08-11T09:53:53;99814.47;;;29.96;62.95
30714;BME280;17465;47.934;33.430;2022-08-11T09:56:26;99810.90;;;30.29;61.61
30714;BME280;17465;47.934;33.430;2022-08-11T09:58:58;99810.90;;;30.29;61.61
30714;BME280;17465;47.934;33.430;2022-08-11T10:01:31;99820.77;;;31.13;57.79
30714;BME280;17465;47.934;33.430;2022-08-11T10:06:44;99821.20;;;31.28;56.47
30714;BME280;17465;47.934;33.430;2022-08-11T10:09:18;99831.46;;;31.59;56.91
30714;BME280;17465;47.934;33.430;2022-08-11T10:11:53;99831.46;;;31.59;56.91
30714;BME280;17465;47.934;33.430;2022-08-11T10:14:26;99828.83;;;31.52;58.04
30714;BME280;17465;47.934;33.430;2022-08-11T10:19:57;99822.87;;;31.64;56.72
30714;BME280;17465;47.934;33.430;2022-08-11T10:22:30;99824.33;;;32.03;52.88
30714;BME280;17465;47.934;33.430;2022-08-11T10:25:05;99832.44;;;32.44;51.49
30714;BME280;17465;47.934;33.430;2022-08-11T10:27:36;99832.44;;;32.44;51.49
30714;BME280;17465;47.934;33.430;2022-08-11T10:30:10;99838.59;;;33.04;49.07
30714;BME280;17465;47.934;33.430;2022-08-11T10:32:41;99833.26;;;34.16;44.42
30714;BME280;17465;47.934;33.430;2022-08-11T10:38:07;99824.36;;;33.28;45.78
30714;BME280;17465;47.934;33.430;2022-08-11T10:40:40;99838.30;;;33.93;45.79
30714;BME280;17465;47.934;33.430;2022-08-11T10:43:13;99836.07;;;34.25;45.94
30714;BME280;17465;47.934;33.430;2022-08-11T10:45:46;99834.55;;;34.43;44.15
30714;BME280;17465;47.934;33.430;2022-08-11T10:48:17;99845.77;;;34.41;45.65
30714;BME280;17465;47.934;33.430;2022-08-11T10:50:50;99845.77;;;34.41;45.65
30714;BME280;17465;47.934;33.430;2022-08-11T10:53:22;99838.25;;;34.39;44.44
30714;BME280;17465;47.934;33.430;2022-08-11T10:55:55;99830.59;;;33.04;45.48
30714;BME280;17465;47.934;33.430;2022-08-11T10:58:28;99830.45;;;32.94;47.37
30714;BME280;17465;47.934;33.430;2022-08-11T11:01:00;99830.45;;;32.94;47.37
30714;BME280;17465;47.934;33.430;2022-08-11T11:03:32;99829.19;;;33.13;46.67
30714;BME280;17465;47.934;33.430;2022-08-11T11:08:48;99841.80;;;34.34;44.90
30714;BME280;17465;47.934;33.430;2022-08-11T11:11:22;99839.06;;;34.86;43.63
30714;BME280;17465;47.934;33.430;2022-08-11T11:13:54;99834.39;;;34.42;42.79
30714;BME280;17465;47.934;33.430;2022-08-11T11:16:26;99834.39;;;34.42;42.79
30714;BME280;17465;47.934;33.430;2022-08-11T11:19:00;99834.54;;;33.69;45.69
30714;BME280;17465;47.934;33.430;2022-08-11T11:21:32;99824.99;;;33.41;46.38
30714;BME280;17465;47.934;33.430;2022-08-11T11:27:01;99841.64;;;34.33;45.43
30714;BME280;17465;47.934;33.430;2022-08-11T11:38:30;99820.38;;;32.94;48.66
30714;BME280;17465;47.934;33.430;2022-08-11T11:41:01;99827.59;;;33.21;47.11
30714;BME280;17465;47.934;33.430;2022-08-11T11:43:34;99814.14;;;32.64;48.10
30714;BME280;17465;47.934;33.430;2022-08-11T11:46:05;99814.60;;;32.10;51.47
30714;BME280;17465;47.934;33.430;2022-08-11T11:48:36;99806.80;;;32.90;46.87
30714;BME280;17465;47.934;33.430;2022-08-11T11:51:08;99806.80;;;32.90;46.87
30714;BME280;17465;47.934;33.430;2022-08-11T11:53:41;99799.75;;;32.68;47.22
30714;BME280;17465;47.934;33.430;2022-08-11T11:56:12;99804.71;;;32.72;49.99
30714;BME280;17465;47.934;33.430;2022-08-11T11:58:44;99804.71;;;32.72;49.99
30714;BME280;17465;47.934;33.430;2022-08-11T12:01:16;99798.60;;;32.52;49.51
30714;BME280;17465;47.934;33.430;2022-08-11T12:03:49;99798.60;;;32.52;49.51
30714;BME280;17465;47.934;33.430;2022-08-11T12:06:39;99794.78;;;32.55;48.90
30714;BME280;17465;47.934;33.430;2022-08-11T12:09:11;99794.83;;;32.82;49.27
30714;BME280;17465;47.934;33.430;2022-08-11T12:11:43;99794.89;;;32.25;49.83
30714;BME280;17465;47.934;33.430;2022-08-11T12:14:16;99790.15;;;31.96;50.15
30714;BME280;17465;47.934;33.430;2022-08-11T12:16:48;99787.87;;;31.78;52.79
30714;BME280;17465;47.934;33.430;2022-08-11T12:19:26;99787.87;;;31.78;52.79
30714;BME280;17465;47.934;33.430;2022-08-11T12:21:55;99784.44;;;31.61;54.30
30714;BME280;17465;47.934;33.430;2022-08-11T12:24:28;99779.27;;;30.83;56.29
30714;BME280;17465;47.934;33.430;2022-08-11T12:26:59;99779.27;;;30.83;56.29
30714;BME280;17465;47.934;33.430;2022-08-11T12:29:32;99775.64;;;30.87;56.68
30714;BME280;17465;47.934;33.430;2022-08-11T12:32:05;99772.47;;;30.68;56.00
30714;BME280;17465;47.934;33.430;2022-08-11T12:34:36;99764.13;;;30.61;56.52
30714;BME280;17465;47.934;33.430;2022-08-11T12:37:06;99764.13;;;30.61;56.52
30714;BME280;17465;47.934;33.430;2022-08-11T12:39:43;99773.65;;;30.58;56.18
30714;BME280;17465;47.934;33.430;2022-08-11T12:42:17;99773.65;;;30.58;56.18
30714;BME280;17465;47.934;33.430;2022-08-11T12:44:48;99760.08;;;30.54;56.08
30714;BME280;17465;47.934;33.430;2022-08-11T12:47:20;99759.32;;;30.58;56.22
30714;BME280;17465;47.934;33.430;2022-08-11T12:49:51;99760.84;;;30.67;57.16
30714;BME280;17465;47.934;33.430;2022-08-11T12:52:25;99756.00;;;30.30;56.75
30714;BME280;17465;47.934;33.430;2022-08-11T12:54:58;99756.00;;;30.30;56.75
30714;BME280;17465;47.934;33.430;2022-08-11T12:57:46;99762.63;;;30.23;59.24
30714;BME280;17465;47.934;33.430;2022-08-11T13:00:18;99762.63;;;30.23;59.24
30714;BME280;17465;47.934;33.430;2022-08-11T13:02:50;99751.45;;;29.91;57.35
30714;BME280;17465;47.934;33.430;2022-08-11T13:05:21;99751.45;;;29.91;57.35
30714;BME280;17465;47.934;33.430;2022-08-11T13:07:52;99753.81;;;30.01;57.53
30714;BME280;17465;47.934;33.430;2022-08-11T13:10:23;99755.00;;;29.70;58.94
30714;BME280;17465;47.934;33.430;2022-08-11T13:12:54;99752.37;;;29.88;61.36
30714;BME280;17465;47.934;33.430;2022-08-11T13:15:25;99752.37;;;29.88;61.36
30714;BME280;17465;47.934;33.430;2022-08-11T13:17:56;99737.09;;;29.62;60.64
30714;BME280;17465;47.934;33.430;2022-08-11T13:20:27;99737.09;;;29.62;60.64
30714;BME280;17465;47.934;33.430;2022-08-11T13:22:59;99742.25;;;29.54;63.94
30714;BME280;17465;47.934;33.430;2022-08-11T13:25:31;99742.25;;;29.54;63.94
30714;BME280;17465;47.934;33.430;2022-08-11T13:28:02;99741.36;;;29.12;71.54
30714;BME280;17465;47.934;33.430;2022-08-11T13:30:38;99732.48;;;28.74;74.40
30714;BME280;17465;47.934;33.430;2022-08-11T13:33:08;99720.59;;;28.83;72.66
30714;BME280;17465;47.934;33.430;2022-08-11T13:35:40;99720.59;;;28.83;72.66
30714;BME280;17465;47.934;33.430;2022-08-11T13:38:12;99726.11;;;28.90;76.30
30714;BME280;17465;47.934;33.430;2022-08-11T13:40:45;99721.30;;;28.79;74.22
30714;BME280;17465;47.934;33.430;2022-08-11T13:43:23;99700.61;;;28.55;72.39
30714;BME280;17465;47.934;33.430;2022-08-11T13:45:54;99700.61;;;28.55;72.39
30714;BME280;17465;47.934;33.430;2022-08-11T13:48:26;99681.21;;;28.62;70.07
30714;BME280;17465;47.934;33.430;2022-08-11T13:50:57;99676.02;;;28.65;69.35
30714;BME280;17465;47.934;33.430;2022-08-11T13:53:29;99676.02;;;28.65;69.35
30714;BME280;17465;47.934;33.430;2022-08-11T13:56:00;99728.44;;;28.79;67.04
30714;BME280;17465;47.934;33.430;2022-08-11T13:58:32;99790.00;;;28.96;66.72
30714;BME280;17465;47.934;33.430;2022-08-11T14:01:06;99790.00;;;28.96;66.72
30714;BME280;17465;47.934;33.430;2022-08-11T14:03:40;99804.25;;;27.76;69.49
30714;BME280;17465;47.934;33.430;2022-08-11T14:06:14;99740.47;;;25.19;90.70
30714;BME280;17465;47.934;33.430;2022-08-11T14:08:46;99740.47;;;25.19;90.70
30714;BME280;17465;47.934;33.430;2022-08-11T14:11:18;99767.88;;;23.67;100.00
30714;BME280;17465;47.934;33.430;2022-08-11T14:13:52;99774.80;;;22.48;100.00
30714;BME280;17465;47.934;33.430;2022-08-11T14:16:39;99783.50;;;22.25;100.00
30714;BME280;17465;47.934;33.430;2022-08-11T14:19:13;99783.50;;;22.25;100.00
30714;BME280;17465;47.934;33.430;2022-08-11T14:24:39;99780.48;;;22.24;100.00
30714;BME280;17465;47.934;33.430;2022-08-11T14:27:11;99761.31;;;22.09;100.00
30714;BME280;17465;47.934;33.430;2022-08-11T14:29:45;99761.31;;;22.09;100.00
30714;BME280;17465;47.934;33.430;2022-08-11T14:32:19;99922.08;;;22.35;100.00
30714;BME280;17465;47.934;33.430;2022-08-11T14:34:50;99922.08;;;22.35;100.00
30714;BME280;17465;47.934;33.430;2022-08-11T14:37:22;99973.16;;;21.53;100.00
30714;BME280;17465;47.934;33.430;2022-08-11T14:39:56;99964.57;;;20.65;100.00
30714;BME280;17465;47.934;33.430;2022-08-11T14:42:40;99905.66;;;20.80;100.00
30714;BME280;17465;47.934;33.430;2022-08-11T14:45:16;99822.27;;;20.86;100.00
30714;BME280;17465;47.934;33.430;2022-08-11T14:47:55;99850.74;;;21.01;100.00
30714;BME280;17465;47.934;33.430;2022-08-11T14:50:34;99850.74;;;21.01;100.00
30714;BME280;17465;47.934;33.430;2022-08-11T14:53:10;99818.79;;;21.31;100.00
30714;BME280;17465;47.934;33.430;2022-08-11T14:55:43;99803.23;;;21.20;100.00
30714;BME280;17465;47.934;33.430;2022-08-11T14:58:21;99800.62;;;21.25;100.00
30714;BME280;17465;47.934;33.430;2022-08-11T15:00:50;99803.23;;;21.24;100.00
30714;BME280;17465;47.934;33.430;2022-08-11T15:03:23;99804.45;;;21.23;100.00
30714;BME280;17465;47.934;33.430;2022-08-11T15:06:01;99820.41;;;21.35;100.00
30714;BME280;17465;47.934;33.430;2022-08-11T15:08:37;99820.41;;;21.35;100.00
30714;BME280;17465;47.934;33.430;2022-08-11T15:11:15;99823.65;;;21.51;100.00
30714;BME280;17465;47.934;33.430;2022-08-11T15:13:47;99823.65;;;21.51;100.00
30714;BME280;17465;47.934;33.430;2022-08-11T15:16:17;99789.20;;;21.65;100.00
30714;BME280;17465;47.934;33.430;2022-08-11T15:18:49;99725.45;;;21.71;100.00
30714;BME280;17465;47.934;33.430;2022-08-11T15:21:19;99725.45;;;21.71;100.00
30714;BME280;17465;47.934;33.430;2022-08-11T15:23:50;99702.03;;;21.78;100.00
30714;BME280;17465;47.934;33.430;2022-08-11T15:26:29;99702.03;;;21.78;100.00
30714;BME280;17465;47.934;33.430;2022-08-11T15:29:00;99732.91;;;21.84;100.00
30714;BME280;17465;47.934;33.430;2022-08-11T15:31:32;99732.91;;;21.84;100.00
30714;BME280;17465;47.934;33.430;2022-08-11T15:34:05;99879.42;;;21.85;100.00
30714;BME280;17465;47.934;33.430;2022-08-11T15:36:37;99879.42;;;21.85;100.00
30714;BME280;17465;47.934;33.430;2022-08-11T15:39:15;99867.27;;;21.60;100.00
30714;BME280;17465;47.934;33.430;2022-08-11T15:42:02;99872.31;;;20.99;100.00
30714;BME280;17465;47.934;33.430;2022-08-11T15:44:29;99900.54;;;21.03;100.00
30714;BME280;17465;47.934;33.430;2022-08-11T15:47:07;99912.87;;;21.08;100.00
30714;BME280;17465;47.934;33.430;2022-08-11T15:49:44;99926.81;;;21.14;100.00
30714;BME280;17465;47.934;33.430;2022-08-11T15:52:16;99941.92;;;21.12;100.00
30714;BME280;17465;47.934;33.430;2022-08-11T15:54:48;99941.92;;;21.12;100.00
30714;BME280;17465;47.934;33.430;2022-08-11T15:57:20;99943.29;;;21.08;100.00
30714;BME280;17465;47.934;33.430;2022-08-11T15:59:53;99961.58;;;20.98;100.00
30714;BME280;17465;47.934;33.430;2022-08-11T16:02:51;99962.00;;;21.00;100.00
30714;BME280;17465;47.934;33.430;2022-08-11T16:05:24;99962.00;;;21.00;100.00
30714;BME280;17465;47.934;33.430;2022-08-11T16:07:58;99942.55;;;20.84;100.00
30714;BME280;17465;47.934;33.430;2022-08-11T16:10:30;99884.14;;;20.88;100.00
30714;BME280;17465;47.934;33.430;2022-08-11T16:13:05;99878.07;;;20.83;100.00
30714;BME280;17465;47.934;33.430;2022-08-11T16:15:44;99900.69;;;20.90;100.00
30714;BME280;17465;47.934;33.430;2022-08-11T16:18:14;99921.17;;;20.80;100.00
30714;BME280;17465;47.934;33.430;2022-08-11T16:20:49;99923.20;;;20.79;100.00
30714;BME280;17465;47.934;33.430;2022-08-11T16:23:21;99939.20;;;20.92;100.00
30714;BME280;17465;47.934;33.430;2022-08-11T16:28:57;99925.24;;;21.27;100.00
30714;BME280;17465;47.934;33.430;2022-08-11T16:31:30;99925.24;;;21.27;100.00
30714;BME280;17465;47.934;33.430;2022-08-11T16:34:02;99941.18;;;21.25;100.00
30714;BME280;17465;47.934;33.430;2022-08-11T16:36:39;99923.41;;;21.25;100.00
30714;BME280;17465;47.934;33.430;2022-08-11T16:39:19;99923.41;;;21.25;100.00
30714;BME280;17465;47.934;33.430;2022-08-11T16:41:51;99923.45;;;21.32;100.00
30714;BME280;17465;47.934;33.430;2022-08-11T16:44:49;99957.70;;;21.27;100.00
30714;BME280;17465;47.934;33.430;2022-08-11T16:47:23;100064.63;;;21.32;100.00
30714;BME280;17465;47.934;33.430;2022-08-11T16:49:55;100035.44;;;21.10;100.00
30714;BME280;17465;47.934;33.430;2022-08-11T16:52:27;100057.10;;;20.49;100.00
30714;BME280;17465;47.934;33.430;2022-08-11T16:54:57;100027.34;;;20.35;100.00
30714;BME280;17465;47.934;33.430;2022-08-11T16:57:27;100027.34;;;20.35;100.00
30714;BME280;17465;47.934;33.430;2022-08-11T17:00:04;100025.83;;;20.88;100.00
30714;BME280;17465;47.934;33.430;2022-08-11T17:02:41;100028.44;;;20.87;100.00
30714;BME280;17465;47.934;33.430;2022-08-11T17:05:17;100028.44;;;20.87;100.00
30714;BME280;17465;47.934;33.430;2022-08-11T17:07:50;100003.31;;;20.75;100.00
30714;BME280;17465;47.934;33.430;2022-08-11T17:19:40;99969.41;;;20.91;100.00
30714;BME280;17465;47.934;33.430;2022-08-11T17:22:19;99969.41;;;20.91;100.00
30714;BME280;17465;47.934;33.430;2022-08-11T17:24:52;99970.83;;;20.95;100.00